WetterOnline ( https://www.wetteronline.de )

Wetter aktuell Rappin Rügen

Aktuelles Wetter: Greifswald (6m)

6-stündlich | Neueste Meldungen
Ortszeit Temperatur Wetter
Do, 23.09. 2:00 13.0° C bedeckt
Mi, 22.09. 20:00 14.8° C leicht bewölkt
Mi, 22.09. 14:00 16.6° C wolkig
Mi, 22.09. 8:00 12.0° C bewölkt
Mi, 22.09. 2:00 12.0° C leicht bewölkt
Di, 21.09. 20:00 12.2° C Sprühregen
Di, 21.09. 14:00 13.8° C bedeckt
Di, 21.09. 8:00 10.1° C bewölkt
Ortszeit Temperatur Wetter
Do, 23.09. 2:30 13.0° C wolkig
Do, 23.09. 2:20 13.0° C wolkig
Do, 23.09. 2:10 13.0° C bewölkt
Do, 23.09. 2:00 13.0° C bedeckt
Do, 23.09. 1:50 13.0° C bedeckt
Do, 23.09. 1:40 13.0° C bedeckt
Do, 23.09. 1:30 13.0° C bedeckt
Do, 23.09. 1:00 12.9° C wolkig
Do, 23.09. 0:30 13.1° C leicht bewölkt
Do, 23.09. 0:00 13.0° C wolkenlos
Mi, 22.09. 23:30 12.9° C wolkenlos
Ortszeit Relative Feuchte Sichtweite
Do, 23.09. 2:00 88% 13 km
Mi, 22.09. 20:00 77% 25 km
Mi, 22.09. 14:00 68% 27 km
Mi, 22.09. 8:00 95% 13 km
Mi, 22.09. 2:00 91% 22 km
Di, 21.09. 20:00 97% 4.7 km
Di, 21.09. 14:00 63% 40 km
Di, 21.09. 8:00 87% 24 km
Ortszeit Relative Feuchte Sichtweite
Do, 23.09. 2:30 88% 12 km
Do, 23.09. 2:20 88% -
Do, 23.09. 2:10 88% -
Do, 23.09. 2:00 88% 13 km
Do, 23.09. 1:50 88% -
Do, 23.09. 1:40 88% -
Do, 23.09. 1:30 88% 24 km
Do, 23.09. 1:00 88% 25 km
Do, 23.09. 0:30 87% 27 km
Do, 23.09. 0:00 88% 25 km
Mi, 22.09. 23:30 89% 23 km
Ortszeit Niederschlagsmenge Niederschlagsart
Do, 23.09. 2:00 0.0 l/m2 in 6 Std. -
Mi, 22.09. 20:00 0.1 l/m2 in 12 Std. -
Mi, 22.09. 14:00 0.1 l/m2 in 6 Std. Regen
Mi, 22.09. 8:00 0.9 l/m2 in 12 Std. -
Mi, 22.09. 2:00 0.9 l/m2 in 6 Std. Regen
Di, 21.09. 20:00 2 l/m2 in 12 Std. Regen
Di, 21.09. 14:00 0.1 l/m2 in 6 Std. Regen
Di, 21.09. 8:00 0.0 l/m2 in 12 Std. -
Ortszeit Niederschlagsmenge Niederschlagsart
Do, 23.09. 2:30 0.0 l/m2 in 1 Std. -
Do, 23.09. 2:20 keine Meldung -
Do, 23.09. 2:10 keine Meldung -
Do, 23.09. 2:00 0.0 l/m2 in 1 Std. -
Do, 23.09. 1:50 keine Meldung -
Do, 23.09. 1:40 keine Meldung -
Do, 23.09. 1:30 0.0 l/m2 in 1 Std. -
Do, 23.09. 1:00 0.0 l/m2 in 1 Std. -
Do, 23.09. 0:30 0.0 l/m2 in 1 Std. -
Do, 23.09. 0:00 0.0 l/m2 in 1 Std. -
Mi, 22.09. 23:30 0.0 l/m2 in 1 Std. -
Ortszeit Stärke Spitze Richtung
km/h Bft. km/h Grad Sektor
Do, 23.09. 2:00 11 2 22 240° SW
Mi, 22.09. 20:00 7 2 29 230° SW
Mi, 22.09. 14:00 15 3 22 290° W
Mi, 22.09. 8:00 7 2 25 280° W
Mi, 22.09. 2:00 11 2 28 300° NW
Di, 21.09. 20:00 11 2 33 220° SW
Di, 21.09. 14:00 11 2 25 280° W
Di, 21.09. 8:00 6 1 11 250° W
Ortszeit Stärke Spitze Richtung
km/h Bft. km/h Grad Sektor
Do, 23.09. 2:30 11 2 18 240° SW
Do, 23.09. 2:20 11 2 - 240° SW
Do, 23.09. 2:10 11 2 - 240° SW
Do, 23.09. 2:00 11 2 22 240° SW
Do, 23.09. 1:50 11 2 - 240° SW
Do, 23.09. 1:40 9 2 - 240° SW
Do, 23.09. 1:30 11 2 22 240° SW
Do, 23.09. 1:00 11 2 22 230° SW
Do, 23.09. 0:30 11 2 20 220° SW
Do, 23.09. 0:00 11 2 18 230° SW
Mi, 22.09. 23:30 7 2 14 230° SW
Ortszeit Untergrenze Bedeckung Gattung
total tief tief mittel hoch
Do, 23.09. 2:00 6600 m 8/8 8/8 - - -
Mi, 22.09. 20:00 12000 m 4/8 0/8 - - -
Mi, 22.09. 14:00 780 m 7/8 2/8 - - -
Mi, 22.09. 8:00 240 m 8/8 7/8 - - -
Mi, 22.09. 2:00 9000 m 5/8 0/8 - - -
Di, 21.09. 20:00 180 m 7/8 7/8 - - -
Di, 21.09. 14:00 1260 m 8/8 8/8 - - -
Di, 21.09. 8:00 1080 m 7/8 7/8 - - -
Ortszeit Bedeckungsgrad in Achtel und Wolkenuntergrenze
Do, 23.09. 2:30 5(6600m) 6(7500m)
Do, 23.09. 2:20 5(6600m) 6(7500m)
Do, 23.09. 2:10 7(6600m)
Do, 23.09. 2:00 7(6600m) 8(6900m)
Do, 23.09. 1:50 7(6600m) 8(6900m)
Do, 23.09. 1:40 8(6900m)
Do, 23.09. 1:30 8(6900m) 8(9000m)
Do, 23.09. 1:00 4(6900m) 7(7800m) 7(9000m)
Do, 23.09. 0:30 5(8100m) 5(9000m)
Do, 23.09. 0:00 keine Wolken
Mi, 22.09. 23:30 keine Wolken
Ortszeit Luftdruck NN (hPa) Tendenz (hPa in 3 Std.)
Do, 23.09. 2:00 1019 - 1,5
Mi, 22.09. 20:00 1022 - 1,5
Mi, 22.09. 14:00 1025 - 0,6
Mi, 22.09. 8:00 1025 + 0,8
Mi, 22.09. 2:00 1024 + 0,7
Di, 21.09. 20:00 1023 - 1,6
Di, 21.09. 14:00 1026 - 0,1
Di, 21.09. 8:00 1026 + 0,4
Ortszeit Luftdruck NN (hPa) Tendenz (hPa in 3 Std.)
Do, 23.09. 2:30 1018 - 1,8
Do, 23.09. 2:20 1018 keine Meldung
Do, 23.09. 2:10 1019 keine Meldung
Do, 23.09. 2:00 1019 - 1,5
Do, 23.09. 1:50 1019 keine Meldung
Do, 23.09. 1:40 1019 keine Meldung
Do, 23.09. 1:30 1019 - 1,7
Do, 23.09. 1:00 1019 - 1,7
Do, 23.09. 0:30 1020 - 1,6
Do, 23.09. 0:00 1020 - 1,6
Mi, 22.09. 23:30 1020 - 1,6
Ortszeit Schneehöhe (cm)
Do, 23.09. 2:00 -
Mi, 22.09. 20:00 -
Mi, 22.09. 14:00 -
Mi, 22.09. 8:00 -
Mi, 22.09. 2:00 -
Di, 21.09. 20:00 -
Di, 21.09. 14:00 -
Di, 21.09. 8:00 -
Ortszeit Schneehöhe (cm)
Do, 23.09. 2:30 -
Do, 23.09. 2:20 -
Do, 23.09. 2:10 -
Do, 23.09. 2:00 -
Do, 23.09. 1:50 -
Do, 23.09. 1:40 -
Do, 23.09. 1:30 -
Do, 23.09. 1:00 -
Do, 23.09. 0:30 -
Do, 23.09. 0:00 -
Mi, 22.09. 23:30 -
Link zu dieser Seite / Seite empfehlen

Das Wetter in ...